Aérodrome :
LOGIN :

S'inscrire | Disclaimer

   EN    FR    IT 

 










Légende :    VFR   VFR Marginal   IFR   IFR Intensif   IFR Très Intensif
Visi : 
Plafond : 
>= 8 km
>= 3000ft
5 à 8 km
1000 à 3000 ft
1500m à 5 km
500 à 1000 ft
800 à 1500m
200 à 500 ft
< 800m
< 200 ft
Symboles :   Orages  Brouillard  Fortes neiges  Fortes précipitations  Vent > 20 kt
SIGMETs :   Divers  Orages  Givrage  Turbulence  Onde Orograph.  Cendres Volcan.






- Altitude de l'aérodrome : 194 ft


EBCV - Chièvres

DERNIER METAR :
  • 232325Z AUTO 14006KT 9999 NCD 07/04 Q1026 BLU

METARs EXPIRÉS :
  • 232255Z AUTO 14006KT 9999 NCD 07/04 Q1026 BLU
  • 232225Z AUTO 14007KT 9999 NCD 07/04 Q1026 BLU
  • 232155Z AUTO 15004KT 9999 NCD 07/04 Q1027 BLU
  • 232125Z AUTO 14004KT 9999 NCD 07/05 Q1027 BLU
  • 232055Z AUTO VRB02KT 9999 NCD 07/04 Q1027 BLU

TAF TAF EBCV
Valide du 23 à 19h jusqu'au 24 à 07h UTC


231541Z 2319/2407 16005KT 9999 BKN045
BECMG 2322/2324 SKC
PROB30
TEMPO 2404/2407 7000 BY EBWM



MET'MAP, la Météo Aéronautique d'un coup d'oeil ! - Copyright ORBIFLY Décembre 2007 - Disclaimer

ORBIFLY MET'MAP TEAM :

Programmation & Développement : Alexandra Zaïnal
Sur une idée originale de : Baudouin d'Aumeries
Assistance à la programmation : Marc-Olivier Méhu
Soutien technique & logistique : Manuel Goepfert

Contact : metmap@orbifly.com




SOURCES & CREDITS :

   NOAA